Time;durP1;ratioP1;P1;durP2;ratioP2;P2;SDS_P1;SDS_P2;PMS_P1;PMS_P2;Temp;Humidity;BMP_temperature;BMP_pressure;BME280_temperature;BME280_humidity;BME280_pressure;Samples;Min_cycle;Max_cycle;Signal;HPM_P1;HPM_P2
2022/04/16 00:00:44;;;;;;;13.13;11.75;;;;;;;;;;5281695;28;20052;-71
2022/04/16 00:03:15;;;;;;;14.25;11.77;;;;;;;;;;5282800;28;20267;-70
2022/04/16 00:05:46;;;;;;;15.23;11.65;;;;;;;;;;5281786;28;20044;-70
2022/04/16 00:08:18;;;;;;;15.95;12.68;;;;;;;;;;5281680;28;20532;-71
2022/04/16 00:10:50;;;;;;;15.60;11.75;;;;;;;;;;5282447;28;20270;-71
2022/04/16 00:13:22;;;;;;;15.38;11.60;;;;;;;;;;5281241;28;20056;-71
2022/04/16 00:15:53;;;;;;;14.55;10.70;;;;;;;;;;5282357;28;20021;-69
2022/04/16 00:18:24;;;;;;;15.70;10.88;;;;;;;;;;5281934;28;20099;-69
2022/04/16 00:20:57;;;;;;;13.05;10.93;;;;;;;;;;5281472;28;20467;-69
2022/04/16 00:23:28;;;;;;;12.88;11.57;;;;;;;;;;5281781;28;20017;-70
2022/04/16 00:26:02;;;;;;;13.23;11.48;;;;;;;;;;5281932;28;20032;-69
2022/04/16 00:28:35;;;;;;;14.63;11.63;;;;;;;;;;5280975;28;20289;-69
2022/04/16 00:31:06;;;;;;;13.38;11.20;;;;;;;;;;5281767;28;20056;-69
2022/04/16 00:33:37;;;;;;;16.38;12.20;;;;;;;;;;5281330;28;20048;-69
2022/04/16 00:36:08;;;;;;;16.63;13.85;;;;;;;;;;5281343;28;20017;-70
2022/04/16 00:38:40;;;;;;;13.88;12.38;;;;;;;;;;5281412;28;20517;-70
2022/04/16 00:41:13;;;;;;;14.15;11.73;;;;;;;;;;5281927;28;20297;-70
2022/04/16 00:43:44;;;;;;;13.95;11.80;;;;;;;;;;5280302;28;20012;-70
2022/04/16 00:46:15;;;;;;;17.42;11.88;;;;;;;;;;5282090;28;20033;-70
2022/04/16 00:48:46;;;;;;;15.18;12.56;;;;;;;;;;5280582;28;20017;-70
2022/04/16 00:51:17;;;;;;;17.02;13.26;;;;;;;;;;5281909;28;20021;-70
2022/04/16 00:53:49;;;;;;;14.62;12.64;;;;;;;;;;5281290;28;20161;-70
2022/04/16 00:56:20;;;;;;;14.82;12.48;;;;;;;;;;5280658;28;20021;-70
2022/04/16 00:58:51;;;;;;;18.00;13.98;;;;;;;;;;5281626;28;20020;-70
2022/04/16 01:01:22;;;;;;;17.13;12.60;;;;;;;;;;5280989;28;20020;-70
2022/04/16 01:03:53;;;;;;;15.56;12.86;;;;;;;;;;5280430;28;20037;-69
2022/04/16 01:06:34;;;;;;;16.06;13.58;;;;;;;;;;5280845;28;20403;-69
2022/04/16 01:09:06;;;;;;;16.05;13.27;;;;;;;;;;5281881;28;20028;-69
2022/04/16 01:11:39;;;;;;;17.83;13.85;;;;;;;;;;5280232;28;20027;-70
2022/04/16 01:14:11;;;;;;;16.27;14.38;;;;;;;;;;5281272;28;20052;-70
2022/04/16 01:16:42;;;;;;;17.42;14.23;;;;;;;;;;5280323;28;20032;-70
2022/04/16 01:19:14;;;;;;;16.13;14.52;;;;;;;;;;5281457;28;20032;-70
2022/04/16 01:21:46;;;;;;;21.35;14.95;;;;;;;;;;5281171;28;20022;-70
2022/04/16 01:24:17;;;;;;;18.98;14.68;;;;;;;;;;5280786;28;20024;-70
2022/04/16 01:26:51;;;;;;;17.02;14.82;;;;;;;;;;5281041;28;20024;-70
2022/04/16 01:29:22;;;;;;;16.67;14.90;;;;;;;;;;5280775;28;20024;-70
2022/04/16 01:31:53;;;;;;;17.20;14.40;;;;;;;;;;5280103;28;20009;-70
2022/04/16 01:34:25;;;;;;;17.76;15.92;;;;;;;;;;5280777;28;20017;-70
2022/04/16 01:37:02;;;;;;;17.42;15.57;;;;;;;;;;5281376;28;20070;-70
2022/04/16 01:39:33;;;;;;;24.73;16.95;;;;;;;;;;5280149;28;20025;-70
2022/04/16 01:42:05;;;;;;;19.33;15.40;;;;;;;;;;5281427;28;20044;-69
2022/04/16 01:44:37;;;;;;;18.65;15.20;;;;;;;;;;5280616;28;20029;-70
2022/04/16 01:47:08;;;;;;;18.75;16.17;;;;;;;;;;5280475;28;20047;-70
2022/04/16 01:49:39;;;;;;;19.48;16.05;;;;;;;;;;5280516;28;20338;-70
2022/04/16 01:52:10;;;;;;;19.28;16.78;;;;;;;;;;5280335;28;20051;-70
2022/04/16 01:54:41;;;;;;;18.96;16.40;;;;;;;;;;5280551;28;20032;-70
2022/04/16 01:57:13;;;;;;;18.76;16.10;;;;;;;;;;5281272;28;20100;-70
2022/04/16 01:59:45;;;;;;;23.67;17.42;;;;;;;;;;5279750;28;20024;-70
2022/04/16 02:02:17;;;;;;;21.42;18.40;;;;;;;;;;5280750;28;20040;-70
2022/04/16 02:04:48;;;;;;;18.65;16.48;;;;;;;;;;5280212;28;20466;-70
2022/04/16 02:07:19;;;;;;;18.85;16.85;;;;;;;;;;5279795;28;20025;-71
2022/04/16 02:09:50;;;;;;;18.85;16.45;;;;;;;;;;5280533;28;20020;-70
2022/04/16 02:12:21;;;;;;;22.92;16.66;;;;;;;;;;5280302;28;20463;-71
2022/04/16 02:14:52;;;;;;;21.42;16.80;;;;;;;;;;5279889;28;20463;-70
2022/04/16 02:17:24;;;;;;;19.48;17.32;;;;;;;;;;5284101;28;20434;-70
2022/04/16 02:19:55;;;;;;;18.73;16.70;;;;;;;;;;5284751;28;20390;-71
2022/04/16 02:22:26;;;;;;;19.08;16.90;;;;;;;;;;5283668;28;20025;-71
2022/04/16 02:25:03;;;;;;;21.42;16.50;;;;;;;;;;5284546;28;20111;-70
2022/04/16 02:27:35;;;;;;;18.00;16.15;;;;;;;;;;5283350;28;20370;-70
2022/04/16 02:30:07;;;;;;;19.90;17.63;;;;;;;;;;5284544;28;20020;-70
2022/04/16 02:32:39;;;;;;;26.65;18.67;;;;;;;;;;5284142;28;20405;-70
2022/04/16 02:35:13;;;;;;;22.23;18.35;;;;;;;;;;5283700;28;20021;-70
2022/04/16 02:37:44;;;;;;;21.35;17.50;;;;;;;;;;5283742;28;20078;-71
2022/04/16 02:40:16;;;;;;;18.88;16.35;;;;;;;;;;5284282;28;20025;-70
2022/04/16 02:42:47;;;;;;;20.54;17.48;;;;;;;;;;5282914;28;20103;-71
2022/04/16 02:48:08;;;;;;;23.67;18.23;;;;;;;;;;5283330;28;20028;-71
2022/04/16 02:50:39;;;;;;;22.28;18.14;;;;;;;;;;5283387;28;20020;-69
2022/04/16 02:53:11;;;;;;;19.95;17.83;;;;;;;;;;5283825;28;20012;-70
2022/04/16 02:55:46;;;;;;;21.77;17.20;;;;;;;;;;5282345;28;20032;-70
2022/04/16 02:58:17;;;;;;;22.25;18.30;;;;;;;;;;5283844;28;20027;-70
2022/04/16 03:00:48;;;;;;;21.94;18.40;;;;;;;;;;5283072;28;20460;-70
2022/04/16 03:03:20;;;;;;;21.02;18.18;;;;;;;;;;5282639;28;20017;-72
2022/04/16 03:05:51;;;;;;;23.08;18.63;;;;;;;;;;5283456;28;20056;-71
2022/04/16 03:08:24;;;;;;;24.02;18.40;;;;;;;;;;5282846;28;20029;-70
2022/04/16 03:10:55;;;;;;;26.55;18.80;;;;;;;;;;5282888;28;20803;-71
2022/04/16 03:13:27;;;;;;;20.98;18.73;;;;;;;;;;5282865;28;20041;-71
2022/04/16 03:18:49;;;;;;;24.35;18.55;;;;;;;;;;5283226;28;20484;-69
2022/04/16 03:21:20;;;;;;;22.96;19.26;;;;;;;;;;5283498;28;20017;-70
2022/04/16 03:23:51;;;;;;;23.48;19.48;;;;;;;;;;5282397;28;20103;-70
2022/04/16 03:26:22;;;;;;;27.76;20.10;;;;;;;;;;5282299;28;20025;-70
2022/04/16 03:28:54;;;;;;;25.40;19.72;;;;;;;;;;5283280;28;20024;-70
2022/04/16 03:31:25;;;;;;;25.75;19.42;;;;;;;;;;5282310;28;20048;-70
2022/04/16 03:33:56;;;;;;;23.98;19.60;;;;;;;;;;5283426;28;20032;-71
2022/04/16 03:36:28;;;;;;;24.50;20.15;;;;;;;;;;5282486;28;20021;-71
2022/04/16 03:38:59;;;;;;;25.73;19.30;;;;;;;;;;5282318;28;20024;-70
2022/04/16 03:41:30;;;;;;;23.80;20.02;;;;;;;;;;5282570;28;20044;-71
2022/04/16 03:44:02;;;;;;;24.40;20.38;;;;;;;;;;5282920;28;20020;-70
2022/04/16 03:46:33;;;;;;;26.15;20.90;;;;;;;;;;5281663;28;20060;-71
2022/04/16 03:49:04;;;;;;;27.23;20.30;;;;;;;;;;5282761;28;20017;-70
2022/04/16 03:51:35;;;;;;;27.16;20.72;;;;;;;;;;5281328;28;20024;-70
2022/04/16 04:00:04;;;;;;;29.45;23.15;;;;;;;;;;5282056;28;20029;-70
2022/04/16 04:02:36;;;;;;;19.45;15.75;;;;;;;;;;5282411;28;20016;-70
2022/04/16 04:05:07;;;;;;;27.27;22.30;;;;;;;;;;5282607;28;20104;-71
2022/04/16 04:07:39;;;;;;;25.13;21.48;;;;;;;;;;5281142;28;20551;-71
2022/04/16 04:10:10;;;;;;;29.38;21.52;;;;;;;;;;5282573;28;20368;-70
2022/04/16 04:12:41;;;;;;;26.95;21.92;;;;;;;;;;5281280;28;20033;-69
2022/04/16 04:15:13;;;;;;;28.74;21.74;;;;;;;;;;5282485;28;20130;-70
2022/04/16 04:17:44;;;;;;;27.98;22.85;;;;;;;;;;5281529;28;20032;-71
2022/04/16 04:20:15;;;;;;;28.48;23.38;;;;;;;;;;5281419;28;20025;-70
2022/04/16 04:22:46;;;;;;;30.24;25.26;;;;;;;;;;5281562;28;20028;-70
2022/04/16 04:25:18;;;;;;;28.42;23.00;;;;;;;;;;5282104;28;20048;-71
2022/04/16 04:27:49;;;;;;;28.90;22.50;;;;;;;;;;5280635;28;20425;-69
2022/04/16 04:30:20;;;;;;;27.00;22.38;;;;;;;;;;5281684;28;20021;-71
2022/04/16 04:32:51;;;;;;;29.73;22.67;;;;;;;;;;5281750;28;20162;-71
2022/04/16 04:35:23;;;;;;;26.16;22.86;;;;;;;;;;5280936;28;20017;-71
2022/04/16 04:37:54;;;;;;;28.85;23.05;;;;;;;;;;5281430;28;20095;-70
2022/04/16 04:40:25;;;;;;;30.33;23.67;;;;;;;;;;5281185;28;20024;-71
2022/04/16 04:42:57;;;;;;;31.85;23.70;;;;;;;;;;5281131;28;20502;-70
2022/04/16 04:45:28;;;;;;;31.56;23.80;;;;;;;;;;5281203;28;20035;-71
2022/04/16 04:47:59;;;;;;;29.35;23.42;;;;;;;;;;5281421;28;20415;-72
2022/04/16 04:50:30;;;;;;;29.22;24.26;;;;;;;;;;5281178;28;20040;-71
2022/04/16 04:53:01;;;;;;;30.73;25.63;;;;;;;;;;5281734;28;20013;-71
2022/04/16 04:55:32;;;;;;;32.83;26.38;;;;;;;;;;5280177;28;20130;-71
2022/04/16 04:58:04;;;;;;;27.52;23.35;;;;;;;;;;5281745;28;20464;-70
2022/04/16 05:00:35;;;;;;;30.67;25.88;;;;;;;;;;5281342;28;20039;-70
2022/04/16 05:03:06;;;;;;;28.70;25.00;;;;;;;;;;5280974;28;20023;-71
2022/04/16 05:05:37;;;;;;;33.75;24.92;;;;;;;;;;5281036;28;20136;-70
2022/04/16 05:08:08;;;;;;;30.54;25.20;;;;;;;;;;5281462;28;20020;-71
2022/04/16 05:10:39;;;;;;;33.00;25.95;;;;;;;;;;5279995;28;20052;-71
2022/04/16 05:13:11;;;;;;;31.84;25.90;;;;;;;;;;5281299;28;20302;-71
2022/04/16 05:15:42;;;;;;;30.45;25.38;;;;;;;;;;5280892;28;20499;-71
2022/04/16 05:18:13;;;;;;;30.54;24.48;;;;;;;;;;5280513;28;20403;-70
2022/04/16 05:20:44;;;;;;;32.26;27.00;;;;;;;;;;5280682;28;20024;-70
2022/04/16 05:23:15;;;;;;;32.22;27.13;;;;;;;;;;5280620;28;20028;-70
2022/04/16 05:25:46;;;;;;;31.00;23.42;;;;;;;;;;5280916;28;20051;-70
2022/04/16 05:28:18;;;;;;;27.15;23.73;;;;;;;;;;5281385;28;20020;-70
2022/04/16 05:30:54;;;;;;;28.58;23.02;;;;;;;;;;5280340;28;20021;-71
2022/04/16 05:36:15;;;;;;;27.77;22.30;;;;;;;;;;5281599;28;20123;-70
2022/04/16 05:38:46;;;;;;;29.55;23.77;;;;;;;;;;5279959;28;20551;-70
2022/04/16 05:41:18;;;;;;;29.28;24.14;;;;;;;;;;5281075;28;20051;-70
2022/04/16 05:43:49;;;;;;;30.48;25.13;;;;;;;;;;5280677;28;20399;-71
2022/04/16 05:46:20;;;;;;;29.95;23.65;;;;;;;;;;5280169;28;20071;-71
2022/04/16 05:48:51;;;;;;;27.02;23.35;;;;;;;;;;5280900;28;20031;-70
2022/04/16 05:51:23;;;;;;;29.24;24.04;;;;;;;;;;5283917;28;20036;-70
2022/04/16 05:53:54;;;;;;;32.33;25.83;;;;;;;;;;5285126;28;20060;-72
2022/04/16 05:56:26;;;;;;;32.88;25.25;;;;;;;;;;5284548;28;20032;-69
2022/04/16 05:58:59;;;;;;;32.40;26.60;;;;;;;;;;5284492;28;20102;-70
2022/04/16 06:01:30;;;;;;;31.92;27.10;;;;;;;;;;5284553;28;20042;-70
2022/04/16 06:04:01;;;;;;;29.38;24.95;;;;;;;;;;5284946;28;20029;-70
2022/04/16 06:06:32;;;;;;;32.72;25.58;;;;;;;;;;5283404;28;20024;-71
2022/04/16 06:09:03;;;;;;;30.48;25.14;;;;;;;;;;5284746;28;20102;-70
2022/04/16 06:11:35;;;;;;;30.52;26.78;;;;;;;;;;5284168;28;20020;-70
2022/04/16 06:14:06;;;;;;;31.33;24.67;;;;;;;;;;5283950;28;20041;-71
2022/04/16 06:16:37;;;;;;;31.78;27.28;;;;;;;;;;5283887;28;20029;-71
2022/04/16 06:19:08;;;;;;;30.24;25.48;;;;;;;;;;5283515;28;20430;-70
2022/04/16 06:21:39;;;;;;;30.10;24.77;;;;;;;;;;5284063;28;20426;-70
2022/04/16 06:24:10;;;;;;;30.20;26.48;;;;;;;;;;5284574;28;20024;-71
2022/04/16 06:26:42;;;;;;;29.92;26.73;;;;;;;;;;5283171;28;20103;-71
2022/04/16 06:29:14;;;;;;;27.65;24.70;;;;;;;;;;5284443;28;20266;-71
2022/04/16 06:31:45;;;;;;;32.97;26.13;;;;;;;;;;5283691;28;20395;-71
2022/04/16 06:34:16;;;;;;;30.40;26.04;;;;;;;;;;5283686;28;20021;-71
2022/04/16 06:36:47;;;;;;;30.00;24.70;;;;;;;;;;5283943;28;20013;-71
2022/04/16 06:39:18;;;;;;;28.52;25.10;;;;;;;;;;5283811;28;20358;-70
2022/04/16 06:41:49;;;;;;;31.95;24.58;;;;;;;;;;5283061;28;20274;-70
2022/04/16 06:44:21;;;;;;;30.40;25.20;;;;;;;;;;5283778;28;20029;-70
2022/04/16 06:46:54;;;;;;;32.60;26.17;;;;;;;;;;5284068;28;20032;-71
2022/04/16 06:49:25;;;;;;;33.03;25.20;;;;;;;;;;5282237;28;20023;-70
2022/04/16 06:51:57;;;;;;;30.10;25.77;;;;;;;;;;5283697;28;20379;-70
2022/04/16 06:54:28;;;;;;;31.20;25.48;;;;;;;;;;5282589;28;20173;-70
2022/04/16 06:56:59;;;;;;;26.02;22.40;;;;;;;;;;5283951;28;20742;-71
2022/04/16 06:59:30;;;;;;;24.42;21.92;;;;;;;;;;5283744;28;20263;-69
2022/04/16 07:02:01;;;;;;;27.67;23.25;;;;;;;;;;5282613;28;20291;-72
2022/04/16 07:04:32;;;;;;;26.60;21.30;;;;;;;;;;5283483;28;20287;-72
2022/04/16 07:07:04;;;;;;;25.25;21.48;;;;;;;;;;5283796;28;20259;-70
2022/04/16 07:09:38;;;;;;;26.23;20.98;;;;;;;;;;5282613;28;20508;-72
2022/04/16 07:12:10;;;;;;;26.25;21.00;;;;;;;;;;5283717;28;20078;-70
2022/04/16 07:14:41;;;;;;;22.92;20.48;;;;;;;;;;5282994;28;20052;-70
2022/04/16 07:17:12;;;;;;;24.23;19.58;;;;;;;;;;5282845;28;20028;-70
2022/04/16 07:19:43;;;;;;;22.92;19.63;;;;;;;;;;5282676;28;20474;-70
2022/04/16 07:22:18;;;;;;;22.25;19.10;;;;;;;;;;5283546;28;20733;-70
2022/04/16 07:24:49;;;;;;;21.75;19.20;;;;;;;;;;5281928;28;20036;-72
2022/04/16 07:27:21;;;;;;;23.23;20.80;;;;;;;;;;5283285;28;20478;-72
2022/04/16 07:29:58;;;;;;;22.05;19.25;;;;;;;;;;5282404;28;20029;-69
2022/04/16 07:32:29;;;;;;;24.10;19.90;;;;;;;;;;5283057;28;20025;-71
2022/04/16 07:35:00;;;;;;;20.77;18.38;;;;;;;;;;5283252;28;20107;-71
2022/04/16 07:37:31;;;;;;;20.65;18.45;;;;;;;;;;5281385;28;20099;-71
2022/04/16 07:40:03;;;;;;;20.65;17.73;;;;;;;;;;5282820;28;20772;-70
2022/04/16 07:42:34;;;;;;;20.50;18.23;;;;;;;;;;5282059;28;20304;-71
2022/04/16 07:45:06;;;;;;;19.98;17.48;;;;;;;;;;5281555;28;20082;-71
2022/04/16 07:47:37;;;;;;;21.85;18.83;;;;;;;;;;5282097;28;20016;-70
2022/04/16 07:50:08;;;;;;;20.33;18.17;;;;;;;;;;5282523;28;20406;-71
2022/04/16 07:52:40;;;;;;;19.90;17.80;;;;;;;;;;5281172;28;20781;-71
2022/04/16 07:55:11;;;;;;;22.13;18.40;;;;;;;;;;5282588;28;20016;-71
2022/04/16 07:57:42;;;;;;;19.05;17.05;;;;;;;;;;5280998;28;20073;-71
2022/04/16 08:00:13;;;;;;;20.10;17.85;;;;;;;;;;5282517;28;20439;-71
2022/04/16 08:02:45;;;;;;;20.98;17.05;;;;;;;;;;5281919;28;20017;-71
2022/04/16 08:05:16;;;;;;;18.70;16.70;;;;;;;;;;5281639;28;20029;-72
2022/04/16 08:07:47;;;;;;;18.20;16.38;;;;;;;;;;5281608;28;20057;-71
2022/04/16 08:10:18;;;;;;;17.92;15.93;;;;;;;;;;5276739;28;20066;-71
2022/04/16 08:12:49;;;;;;;19.70;16.38;;;;;;;;;;5267132;28;20373;-70
2022/04/16 08:15:21;;;;;;;17.77;15.90;;;;;;;;;;5262596;28;20104;-71
2022/04/16 08:17:52;;;;;;;16.20;14.50;;;;;;;;;;5260007;28;20821;-71
2022/04/16 08:20:23;;;;;;;16.85;15.10;;;;;;;;;;5292200;28;20028;-71
2022/04/16 08:22:54;;;;;;;15.40;13.37;;;;;;;;;;5302473;28;20023;-70
2022/04/16 08:28:00;;;;;;;16.10;13.88;;;;;;;;;;5301430;28;20032;-70
2022/04/16 08:30:31;;;;;;;15.57;13.60;;;;;;;;;;5301290;28;20105;-69
2022/04/16 08:33:03;;;;;;;15.13;13.20;;;;;;;;;;5301866;28;20036;-70
2022/04/16 08:35:34;;;;;;;15.57;13.93;;;;;;;;;;5302574;28;20019;-70
2022/04/16 08:38:05;;;;;;;14.45;12.98;;;;;;;;;;5303013;28;20102;-70
2022/04/16 08:40:37;;;;;;;14.27;12.13;;;;;;;;;;5301537;28;20028;-69
2022/04/16 08:43:08;;;;;;;15.45;13.80;;;;;;;;;;5302675;28;20796;-70
2022/04/16 08:45:40;;;;;;;15.23;13.43;;;;;;;;;;5302441;28;20028;-72
2022/04/16 08:48:11;;;;;;;14.65;13.18;;;;;;;;;;5302227;28;20067;-70
2022/04/16 08:50:43;;;;;;;15.63;13.85;;;;;;;;;;5302229;28;20076;-70
2022/04/16 08:53:17;;;;;;;13.38;12.02;;;;;;;;;;5302445;28;20032;-70
2022/04/16 08:55:49;;;;;;;15.43;13.82;;;;;;;;;;5301410;28;20041;-71
2022/04/16 08:58:20;;;;;;;14.98;13.50;;;;;;;;;;5302584;28;20213;-71
2022/04/16 09:00:51;;;;;;;13.20;11.20;;;;;;;;;;5301539;28;20320;-70
2022/04/16 09:03:30;;;;;;;11.80;10.15;;;;;;;;;;5301692;28;20089;-70
2022/04/16 09:06:01;;;;;;;12.38;10.23;;;;;;;;;;5302519;28;20285;-70
2022/04/16 09:08:33;;;;;;;14.40;12.38;;;;;;;;;;5301271;28;20058;-70
2022/04/16 09:11:05;;;;;;;14.05;11.95;;;;;;;;;;5302586;28;20118;-69
2022/04/16 09:13:55;;;;;;;13.40;12.00;;;;;;;;;;5301572;28;20051;-70
2022/04/16 09:16:26;;;;;;;13.10;11.13;;;;;;;;;;5300940;28;20028;-68
2022/04/16 09:18:58;;;;;;;12.73;11.43;;;;;;;;;;5302504;28;20031;-70
2022/04/16 09:21:29;;;;;;;12.60;10.65;;;;;;;;;;5302364;28;20031;-69
2022/04/16 09:24:01;;;;;;;12.73;10.65;;;;;;;;;;5301305;28;20020;-69
2022/04/16 09:26:38;;;;;;;13.15;11.68;;;;;;;;;;5301928;28;20020;-68
2022/04/16 09:29:11;;;;;;;13.05;10.60;;;;;;;;;;5301938;28;20484;-69
2022/04/16 09:31:46;;;;;;;12.35;10.13;;;;;;;;;;5302080;28;20070;-69
2022/04/16 09:34:17;;;;;;;9.88;8.88;;;;;;;;;;5302749;28;20379;-70
2022/04/16 09:36:49;;;;;;;10.20;9.20;;;;;;;;;;5301089;28;20012;-69
2022/04/16 09:39:22;;;;;;;10.95;9.43;;;;;;;;;;5301762;28;20030;-70
2022/04/16 09:41:54;;;;;;;9.35;8.45;;;;;;;;;;5302273;28;20023;-69
2022/04/16 09:44:25;;;;;;;8.82;7.93;;;;;;;;;;5300844;28;20043;-75
2022/04/16 09:46:57;;;;;;;9.18;7.50;;;;;;;;;;5302598;28;20099;-75
2022/04/16 09:49:30;;;;;;;8.40;6.93;;;;;;;;;;5301593;28;20024;-73
2022/04/16 09:52:04;;;;;;;8.45;6.55;;;;;;;;;;5301607;28;20031;-73
2022/04/16 09:54:35;;;;;;;3.65;3.28;;;;;;;;;;5301259;28;20103;-72
2022/04/16 09:57:07;;;;;;;9.00;5.85;;;;;;;;;;5301971;28;20107;-73
2022/04/16 09:59:39;;;;;;;5.05;4.45;;;;;;;;;;5301430;28;20474;-74
2022/04/16 10:02:12;;;;;;;4.18;3.75;;;;;;;;;;5302425;28;20365;-73
2022/04/16 10:04:44;;;;;;;4.88;3.70;;;;;;;;;;5300642;28;20063;-73
2022/04/16 10:07:15;;;;;;;4.55;3.60;;;;;;;;;;5301683;28;20116;-73
2022/04/16 10:09:53;;;;;;;7.45;5.00;;;;;;;;;;5301379;28;20038;-73
2022/04/16 10:15:02;;;;;;;5.50;4.30;;;;;;;;;;5300757;28;20513;-73
2022/04/16 10:17:42;;;;;;;4.93;4.43;;;;;;;;;;5300364;28;20382;-73
2022/04/16 10:20:17;;;;;;;4.18;3.78;;;;;;;;;;5300772;28;20043;-73
2022/04/16 10:22:52;;;;;;;4.90;4.40;;;;;;;;;;5301168;28;20099;-74
2022/04/16 10:25:32;;;;;;;5.85;5.25;;;;;;;;;;5300401;28;20113;-73
2022/04/16 10:28:04;;;;;;;7.22;5.85;;;;;;;;;;5301688;28;20029;-73
2022/04/16 10:30:36;;;;;;;6.25;5.47;;;;;;;;;;5300958;28;20020;-73
2022/04/16 10:33:18;;;;;;;3.42;1.45;;;;;;;;;;5300501;28;20074;-73
2022/04/16 10:35:50;;;;;;;5.00;2.47;;;;;;;;;;5301058;28;20024;-74
2022/04/16 10:38:22;;;;;;;4.78;4.28;;;;;;;;;;5304862;28;20047;-74
2022/04/16 10:40:54;;;;;;;5.25;3.40;;;;;;;;;;5303112;28;20032;-70
2022/04/16 10:43:26;;;;;;;3.97;3.20;;;;;;;;;;5304452;28;20016;-71
2022/04/16 10:46:02;;;;;;;4.93;3.08;;;;;;;;;;5304178;28;20031;-72
2022/04/16 10:48:34;;;;;;;3.33;2.88;;;;;;;;;;5303243;28;20032;-70
2022/04/16 10:51:06;;;;;;;3.65;2.30;;;;;;;;;;5304932;28;20120;-70
2022/04/16 10:53:38;;;;;;;2.85;1.95;;;;;;;;;;5302879;28;20073;-70
2022/04/16 10:56:17;;;;;;;2.65;1.80;;;;;;;;;;5304746;28;20036;-70
2022/04/16 10:58:58;;;;;;;3.95;2.17;;;;;;;;;;5304919;28;20020;-70
2022/04/16 11:01:30;;;;;;;2.97;2.60;;;;;;;;;;5303404;28;20054;-70
2022/04/16 11:04:11;;;;;;;3.15;2.67;;;;;;;;;;5304251;28;20051;-69
2022/04/16 11:06:45;;;;;;;2.70;2.22;;;;;;;;;;5303473;28;20035;-71
2022/04/16 11:09:18;;;;;;;4.28;2.63;;;;;;;;;;5304615;28;20427;-69
2022/04/16 11:11:50;;;;;;;2.63;1.92;;;;;;;;;;5305008;28;20032;-69
2022/04/16 11:14:23;;;;;;;2.92;2.65;;;;;;;;;;5304257;28;20101;-69
2022/04/16 11:16:54;;;;;;;3.50;2.35;;;;;;;;;;5304021;28;20028;-69
2022/04/16 11:19:26;;;;;;;3.83;2.17;;;;;;;;;;5304058;28;20012;-70
2022/04/16 11:21:57;;;;;;;3.40;2.75;;;;;;;;;;5304061;28;20270;-69
2022/04/16 11:24:28;;;;;;;3.10;2.20;;;;;;;;;;5303468;28;20028;-70
2022/04/16 11:35:33;;;;;;;4.10;3.33;;;;;;;;;;5304105;28;20036;-70
2022/04/16 11:38:05;;;;;;;5.03;2.92;;;;;;;;;;5303502;28;20020;-71
2022/04/16 11:40:36;;;;;;;3.33;2.60;;;;;;;;;;5303849;28;20262;-70
2022/04/16 11:43:08;;;;;;;3.65;3.13;;;;;;;;;;5303497;28;20388;-70
2022/04/16 11:45:45;;;;;;;4.70;3.00;;;;;;;;;;5303341;28;20321;-70
2022/04/16 11:48:16;;;;;;;4.65;3.00;;;;;;;;;;5303735;28;20496;-70
2022/04/16 11:50:47;;;;;;;3.90;3.40;;;;;;;;;;5302879;28;20070;-69
2022/04/16 11:53:18;;;;;;;4.43;3.47;;;;;;;;;;5303935;28;20429;-70
2022/04/16 11:55:50;;;;;;;3.75;3.28;;;;;;;;;;5304016;28;20493;-75
2022/04/16 11:58:29;;;;;;;3.38;3.05;;;;;;;;;;5302681;28;20008;-73
2022/04/16 12:01:02;;;;;;;3.35;2.97;;;;;;;;;;5304014;28;20390;-69
2022/04/16 12:03:36;;;;;;;4.30;3.88;;;;;;;;;;5303432;28;20498;-70
2022/04/16 12:06:08;;;;;;;4.53;3.42;;;;;;;;;;5303095;28;20036;-69
2022/04/16 12:08:40;;;;;;;7.57;4.30;;;;;;;;;;5303309;28;20054;-69
2022/04/16 12:11:11;;;;;;;5.57;3.50;;;;;;;;;;5302795;28;20059;-69
2022/04/16 12:13:42;;;;;;;5.47;3.92;;;;;;;;;;5303002;28;20162;-70
2022/04/16 12:16:14;;;;;;;4.28;3.55;;;;;;;;;;5303740;28;20069;-70
2022/04/16 12:18:46;;;;;;;4.53;3.47;;;;;;;;;;5302227;28;20024;-70
2022/04/16 12:21:17;;;;;;;4.68;3.72;;;;;;;;;;5303468;28;20016;-70
2022/04/16 12:23:50;;;;;;;4.50;3.80;;;;;;;;;;5302693;28;20023;-69
2022/04/16 12:26:22;;;;;;;7.70;3.47;;;;;;;;;;5301532;28;20032;-69
2022/04/16 12:28:53;;;;;;;4.47;3.40;;;;;;;;;;5303471;28;20371;-69
2022/04/16 12:31:25;;;;;;;7.07;4.33;;;;;;;;;;5302726;28;20069;-70
2022/04/16 12:33:56;;;;;;;4.47;3.83;;;;;;;;;;5302368;28;20337;-69
2022/04/16 12:36:27;;;;;;;8.00;4.00;;;;;;;;;;5302724;28;20317;-69
2022/04/16 12:38:59;;;;;;;4.97;4.13;;;;;;;;;;5302608;28;20082;-69
2022/04/16 12:41:30;;;;;;;4.88;4.38;;;;;;;;;;5302680;28;20297;-68
2022/04/16 12:44:01;;;;;;;5.38;4.03;;;;;;;;;;5303261;28;20439;-67
2022/04/16 12:46:33;;;;;;;5.80;3.78;;;;;;;;;;5301173;28;20301;-67
2022/04/16 12:49:04;;;;;;;4.25;3.60;;;;;;;;;;5303110;28;20020;-67
2022/04/16 12:51:35;;;;;;;4.30;3.50;;;;;;;;;;5302250;28;20016;-67
2022/04/16 12:54:06;;;;;;;4.93;3.03;;;;;;;;;;5301982;28;20804;-67
2022/04/16 12:56:37;;;;;;;4.32;3.40;;;;;;;;;;5302171;28;20095;-69
2022/04/16 12:59:09;;;;;;;5.88;3.47;;;;;;;;;;5302027;28;20020;-67
2022/04/16 13:01:40;;;;;;;3.35;3.05;;;;;;;;;;5301561;28;20347;-67
2022/04/16 13:04:11;;;;;;;4.07;3.78;;;;;;;;;;5302856;28;20024;-70
2022/04/16 13:06:42;;;;;;;3.03;2.45;;;;;;;;;;5302117;28;20081;-70
2022/04/16 13:09:14;;;;;;;4.10;2.22;;;;;;;;;;5301827;28;20288;-68
2022/04/16 13:11:46;;;;;;;3.05;2.75;;;;;;;;;;5302343;28;20349;-69
2022/04/16 13:14:17;;;;;;;5.65;3.05;;;;;;;;;;5302034;28;20052;-69
2022/04/16 13:16:48;;;;;;;3.88;2.85;;;;;;;;;;5302313;28;20016;-68
2022/04/16 13:19:19;;;;;;;3.38;2.90;;;;;;;;;;5302616;28;20017;-68
2022/04/16 13:21:52;;;;;;;3.60;2.60;;;;;;;;;;5301541;28;20043;-69
2022/04/16 13:24:23;;;;;;;4.30;2.67;;;;;;;;;;5301677;28;20355;-68
2022/04/16 13:26:55;;;;;;;3.03;1.98;;;;;;;;;;5302600;28;20056;-69
2022/04/16 13:29:26;;;;;;;4.07;2.10;;;;;;;;;;5301000;28;20257;-69
2022/04/16 13:31:57;;;;;;;3.05;2.28;;;;;;;;;;5302314;28;20129;-70
2022/04/16 13:34:28;;;;;;;4.55;3.05;;;;;;;;;;5301732;28;20262;-70
2022/04/16 13:37:00;;;;;;;6.07;2.90;;;;;;;;;;5301484;28;20028;-68
2022/04/16 13:42:24;;;;;;;4.55;2.70;;;;;;;;;;5301268;28;20044;-69
2022/04/16 13:44:55;;;;;;;5.05;2.30;;;;;;;;;;5302012;28;20099;-70
2022/04/16 13:47:26;;;;;;;6.33;3.30;;;;;;;;;;5301804;28;20170;-69
2022/04/16 13:49:57;;;;;;;4.55;2.60;;;;;;;;;;5301184;28;20274;-69
2022/04/16 13:52:29;;;;;;;3.58;2.38;;;;;;;;;;5301851;28;20368;-67
2022/04/16 13:55:00;;;;;;;3.42;2.38;;;;;;;;;;5302311;28;20764;-69
2022/04/16 13:57:31;;;;;;;3.83;2.40;;;;;;;;;;5300782;28;20024;-70
2022/04/16 14:00:03;;;;;;;3.67;2.35;;;;;;;;;;5302433;28;20270;-70
2022/04/16 14:02:34;;;;;;;4.78;2.90;;;;;;;;;;5301220;28;20052;-70
2022/04/16 14:07:55;;;;;;;3.22;2.10;;;;;;;;;;5302215;28;20021;-69
2022/04/16 14:10:29;;;;;;;7.00;2.22;;;;;;;;;;5301812;28;20095;-69
2022/04/16 14:13:01;;;;;;;2.80;1.65;;;;;;;;;;5306329;28;20017;-69
2022/04/16 14:15:32;;;;;;;2.97;2.08;;;;;;;;;;5305744;28;20035;-70
2022/04/16 14:18:03;;;;;;;7.63;1.92;;;;;;;;;;5305407;28;20020;-70
2022/04/16 14:20:36;;;;;;;3.08;1.75;;;;;;;;;;5305346;28;20277;-70
2022/04/16 14:23:07;;;;;;;3.78;2.10;;;;;;;;;;5306232;28;20040;-70
2022/04/16 14:25:38;;;;;;;3.00;1.80;;;;;;;;;;5304725;28;20086;-69
2022/04/16 14:28:10;;;;;;;4.30;1.90;;;;;;;;;;5305934;28;20016;-69
2022/04/16 14:30:41;;;;;;;4.72;1.83;;;;;;;;;;5305389;28;20108;-69
2022/04/16 14:33:12;;;;;;;3.03;2.10;;;;;;;;;;5304927;28;20245;-68
2022/04/16 14:35:45;;;;;;;3.92;2.15;;;;;;;;;;5305241;28;20262;-68
2022/04/16 14:38:18;;;;;;;4.03;2.08;;;;;;;;;;5305569;28;20051;-68
2022/04/16 14:40:49;;;;;;;5.05;2.33;;;;;;;;;;5304578;28;20016;-69
2022/04/16 14:43:20;;;;;;;3.83;2.58;;;;;;;;;;5305276;28;20012;-69
2022/04/16 14:45:51;;;;;;;6.40;2.20;;;;;;;;;;5304699;28;20036;-69
2022/04/16 14:48:22;;;;;;;4.53;2.50;;;;;;;;;;5305276;28;20305;-70
2022/04/16 14:50:54;;;;;;;3.57;2.33;;;;;;;;;;5305517;28;20024;-69
2022/04/16 14:53:25;;;;;;;4.68;2.88;;;;;;;;;;5304039;28;20266;-69
2022/04/16 14:55:56;;;;;;;5.00;2.90;;;;;;;;;;5305192;28;20817;-69
2022/04/16 14:58:28;;;;;;;4.30;2.60;;;;;;;;;;5304813;28;20039;-69
2022/04/16 15:01:00;;;;;;;5.65;3.75;;;;;;;;;;5304575;28;20026;-69
2022/04/16 15:03:31;;;;;;;4.18;2.97;;;;;;;;;;5304797;28;20019;-69
2022/04/16 15:06:02;;;;;;;4.22;3.20;;;;;;;;;;5304922;28;20043;-69
2022/04/16 15:08:33;;;;;;;7.13;3.83;;;;;;;;;;5303533;28;20027;-70
2022/04/16 15:11:04;;;;;;;5.18;4.47;;;;;;;;;;5305032;28;20289;-70
2022/04/16 15:13:35;;;;;;;7.97;4.35;;;;;;;;;;5304317;28;20101;-69
2022/04/16 15:16:07;;;;;;;5.30;4.65;;;;;;;;;;5304445;28;20270;-69
2022/04/16 15:18:38;;;;;;;6.32;4.05;;;;;;;;;;5304249;28;20262;-70
2022/04/16 15:21:09;;;;;;;5.80;4.10;;;;;;;;;;5303970;28;20028;-69
2022/04/16 15:23:40;;;;;;;6.40;4.20;;;;;;;;;;5303505;28;20284;-69
2022/04/16 15:26:13;;;;;;;6.45;4.53;;;;;;;;;;5304631;28;20290;-69